Main page
METAR-TAF:

METAR-TAF

Airports :

Chhatrapati Shivaji International Airport

Mumbai, India

latitude: 19-07N, longitude: 072-51E, elevation: 8 m

Current weather observation

The report was made 28 minutes ago, at 01:00 UTC
Wind 6 kt from the Northeast
Temperature 28°C
Humidity 70%
Pressure 1009 hPa
Visibility: 2500 m
haze

METAR: VABB 190100Z 04006KT 2500 HZ NSC 28/22 Q1009 NOSIG

Time: 06:58 (01:28 UTC)

Forecast

The report was made 2 hours and 28 minutes ago, at 23:00 UTC
Forecast valid from 19 at 00 UTC to 19 at 09 UTC
Wind 5 kt from the Northeast
Visibility: 3000 m
Few clouds at a height of 2000 ft
haze
Becoming
from 19 at 03 UTC to 19 at 05 UTC
Wind 7 kt from the North/Northwest
Visibility: 4000 m
haze, smoke
Becoming
from 19 at 06 UTC to 19 at 08 UTC
Wind 10 kt from the West/Northwest
Visibility: 5000 m
smoke

TAF: VABB 182300Z 1900/1909 05005KT 3000 HZ FEW020 BECMG 1903/1905 34007KT 4000 HZ FU BECMG 1906/1908 29010KT 5000 FU

Weather observations and forecasts of more than 4000 airports (METAR and TAF reports).

The available stations are represented by yellow and red dots on the map.

Hover mouse over dot to see the name of the station.

Then click to see weather observations and forecasts.

To change the map : click on the green buttons with a black cross to zoom in, on the green button with a dash to zoom out, or on the green arrows for adjacent maps.


METAR-TAF: